Mn Pelican — FMLR — position and weather

sailwx.info

Track history (hours):
 
Tides and Currents Weather Stations Pressure Air Temp Water Temp Dewpoint Dewpoint Depression Visibility Wind Speed Wind Dir Waves Ship Positions

Mn Pelican

Last reported at 2014-Aug-01 22:32 UTC. Time now 2014-Aug-02 00:31 UTC.
Position N 32°59' E 032°46'.

Length 155 m.

Type: Ship. MMSI: 228315700.

Date/timePositionNaut miles runAvg speedWind from/ knotsBaromVisibWave heightAir tempDewpointWater temp
2014-Aug-01 22:32N 32°59' E 032°46'1515.0
2014-Aug-01 21:33N 33°05' E 033°02'1515.1
2014-Aug-01 20:32N 33°12' E 033°19'1514.9
2014-Aug-01 19:33N 33°18' E 033°35'1514.8
2014-Aug-01 18:32N 33°24' E 033°51'1615.2
2014-Aug-01 17:30N 33°31' E 034°08'1515.3
2014-Aug-01 16:33N 33°37' E 034°24'1615.2
2014-Aug-01 15:30N 33°44' E 034°41'1415.0
2014-Aug-01 14:33N 33°50' E 034°57'32 0.7
2014-Jul-30 17:29N 33°57' E 035°34'0 0.0
2014-Jul-30 16:32N 33°57' E 035°34'0 0.0
2014-Jul-29 10:11N 33°57' E 035°34'0 0.0
2014-Jul-29 09:19N 33°57' E 035°34'0 0.0
2014-Jul-28 18:25N 33°57' E 035°34'0 0.0
2014-Jul-28 17:25N 33°57' E 035°34'0 0.0
2014-Jul-28 15:30N 33°57' E 035°34'0 0.0
2014-Jul-28 14:32N 33°57' E 035°34'  
2014-Jul-24 08:31N 36°52' E 026°18'1415.1
2014-Jul-24 07:34N 37°04' E 026°07'1515.0
2014-Jul-24 06:34N 37°16' E 025°57'1615.5
2014-Jul-24 05:33N 37°30' E 025°48'5014.9
2014-Jul-24 02:13N 38°19' E 025°44'1214.8
2014-Jul-24 01:26N 38°31' E 025°44'66 2.5
2014-Jul-22 23:26N 39°37' E 025°42'1415.8
2014-Jul-22 22:33N 39°50' E 025°48'  
Track history (hours):
 
Tides and Currents Weather Stations Pressure Air Temp Water Temp Dewpoint Dewpoint Depression Visibility Wind Speed Wind Dir Waves Ship Positions

Mn Pelican

Last reported at 2014-Aug-01 22:32 UTC. Time now 2014-Aug-02 00:31 UTC.
Position N 32°59' E 032°46'.

Length 155 m.

Type: Ship. MMSI: 228315700.

Date/timePositionNaut miles runAvg speedWind from/ knotsBaromVisibWave heightAir tempDewpointWater temp
2014-Aug-01 22:32N 32°59' E 032°46'1515.0
2014-Aug-01 21:33N 33°05' E 033°02'1515.1
2014-Aug-01 20:32N 33°12' E 033°19'1514.9
2014-Aug-01 19:33N 33°18' E 033°35'1514.8
2014-Aug-01 18:32N 33°24' E 033°51'1615.2
2014-Aug-01 17:30N 33°31' E 034°08'1515.3
2014-Aug-01 16:33N 33°37' E 034°24'1615.2
2014-Aug-01 15:30N 33°44' E 034°41'1415.0
2014-Aug-01 14:33N 33°50' E 034°57'32 0.7
2014-Jul-30 17:29N 33°57' E 035°34'0 0.0
2014-Jul-30 16:32N 33°57' E 035°34'0 0.0
2014-Jul-29 10:11N 33°57' E 035°34'0 0.0
2014-Jul-29 09:19N 33°57' E 035°34'0 0.0
2014-Jul-28 18:25N 33°57' E 035°34'0 0.0
2014-Jul-28 17:25N 33°57' E 035°34'0 0.0
2014-Jul-28 15:30N 33°57' E 035°34'0 0.0
2014-Jul-28 14:32N 33°57' E 035°34'  
2014-Jul-24 08:31N 36°52' E 026°18'1415.1
2014-Jul-24 07:34N 37°04' E 026°07'1515.0
2014-Jul-24 06:34N 37°16' E 025°57'1615.5
2014-Jul-24 05:33N 37°30' E 025°48'5014.9
2014-Jul-24 02:13N 38°19' E 025°44'1214.8
2014-Jul-24 01:26N 38°31' E 025°44'66 2.5
2014-Jul-22 23:26N 39°37' E 025°42'1415.8
2014-Jul-22 22:33N 39°50' E 025°48'  

Dump ship's entire track history